Time;durP1;ratioP1;P1;durP2;ratioP2;P2;SDS_P1;SDS_P2;PMS_P1;PMS_P2;Temp;Humidity;BMP_temperature;BMP_pressure;BME280_temperature;BME280_humidity;BME280_pressure;Samples;Min_cycle;Max_cycle;Signal;HPM_P1;HPM_P2
2023/02/13 00:00:26;;;;;;;6.10;5.57;;;;;16.90;102589.00;;;;2087184;28;20725;-50
2023/02/13 00:01:26;;;;;;;6.57;6.00;;;;;16.90;102595.00;;;;2086448;28;20687;-50
2023/02/13 00:02:27;;;;;;;6.47;5.97;;;;;16.90;102591.00;;;;2086144;28;20217;-50
2023/02/13 00:03:27;;;;;;;5.63;5.20;;;;;16.90;102590.00;;;;2085972;28;20221;-50
2023/02/13 00:04:27;;;;;;;5.37;4.97;;;;;16.90;102586.00;;;;2086730;28;20740;-50
2023/02/13 00:05:28;;;;;;;6.60;6.10;;;;;16.90;102583.00;;;;2086483;28;20213;-50
2023/02/13 00:06:28;;;;;;;6.30;5.80;;;;;16.90;102578.00;;;;2086860;28;20236;-50
2023/02/13 00:07:28;;;;;;;5.57;5.07;;;;;16.90;102610.00;;;;2084654;28;20237;-50
2023/02/13 00:08:29;;;;;;;6.10;5.60;;;;;16.90;102571.00;;;;2085179;28;20674;-50
2023/02/13 00:09:29;;;;;;;5.67;5.20;;;;;16.90;102583.00;;;;2085906;28;20610;-51
2023/02/13 00:10:29;;;;;;;6.30;5.80;;;;;16.90;102579.00;;;;2085726;28;20211;-50
2023/02/13 00:11:30;;;;;;;5.93;5.50;;;;;16.90;102587.00;;;;2086818;28;20233;-50
2023/02/13 00:12:30;;;;;;;6.57;5.97;;;;;16.90;102574.00;;;;2086665;28;20719;-50
2023/02/13 00:13:32;;;;;;;6.03;5.53;;;;;16.90;102578.00;;;;2086816;28;20309;-51
2023/02/13 00:14:37;;;;;;;6.10;5.60;;;;;16.90;102575.00;;;;2086506;28;20247;-51
2023/02/13 00:15:37;;;;;;;6.10;5.50;;;;;16.90;102573.00;;;;2086420;28;20296;-50
2023/02/13 00:16:37;;;;;;;6.73;6.17;;;;;16.90;102572.00;;;;2086645;28;20216;-51
2023/02/13 00:17:38;;;;;;;6.53;6.03;;;;;16.90;102566.00;;;;2086680;28;20220;-51
2023/02/13 00:18:38;;;;;;;6.03;5.53;;;;;16.90;102566.00;;;;2086101;28;20214;-51
2023/02/13 00:19:38;;;;;;;6.40;5.90;;;;;16.90;102567.00;;;;2085078;28;20244;-51
2023/02/13 00:20:39;;;;;;;6.97;6.37;;;;;16.90;102566.00;;;;2085161;28;20711;-51
2023/02/13 00:21:39;;;;;;;6.20;5.70;;;;;16.90;102565.00;;;;2086668;28;20218;-51
2023/02/13 00:22:39;;;;;;;6.03;5.53;;;;;16.90;102562.00;;;;2086702;28;20218;-51
2023/02/13 00:23:40;;;;;;;6.00;5.50;;;;;16.90;102563.00;;;;2086042;28;20300;-51
2023/02/13 00:24:40;;;;;;;6.87;6.27;;;;;16.90;102559.00;;;;2086495;28;20222;-51
2023/02/13 00:25:40;;;;;;;5.90;5.30;;;;;16.90;102560.00;;;;2086702;28;20255;-51
2023/02/13 00:26:41;;;;;;;6.20;5.70;;;;;16.90;102570.00;;;;2086613;28;20209;-51
2023/02/13 00:27:41;;;;;;;6.07;5.57;;;;;16.90;102568.00;;;;2086720;28;20287;-51
2023/02/13 00:28:42;;;;;;;6.00;5.50;;;;;16.90;102563.00;;;;2085778;28;20224;-51
2023/02/13 00:29:42;;;;;;;6.47;5.97;;;;;16.90;102559.00;;;;2083638;28;20217;-51
2023/02/13 00:30:42;;;;;;;6.30;5.80;;;;;16.90;102564.00;;;;2094240;28;20232;-51
2023/02/13 00:31:42;;;;;;;6.10;5.60;;;;;16.90;102566.00;;;;2086520;28;20322;-51
2023/02/13 00:32:43;;;;;;;5.83;5.33;;;;;16.90;102562.00;;;;2087440;28;20255;-51
2023/02/13 00:33:43;;;;;;;6.77;6.07;;;;;16.90;102565.00;;;;2087102;28;20210;-51
2023/02/13 00:34:43;;;;;;;5.97;5.47;;;;;16.90;102559.00;;;;2087015;28;20228;-51
2023/02/13 00:35:44;;;;;;;6.10;5.60;;;;;16.90;102561.00;;;;2087195;28;20215;-51
2023/02/13 00:36:44;;;;;;;5.50;5.00;;;;;16.90;102560.00;;;;2086126;28;20220;-51
2023/02/13 00:37:44;;;;;;;5.90;5.40;;;;;16.90;102577.00;;;;2087141;28;20219;-51
2023/02/13 00:38:45;;;;;;;6.20;5.70;;;;;16.90;102562.00;;;;2084886;28;20213;-51
2023/02/13 00:39:45;;;;;;;6.13;5.63;;;;;16.90;102559.00;;;;2087199;28;20299;-51
2023/02/13 00:40:46;;;;;;;5.70;5.20;;;;;16.90;102562.00;;;;2085796;28;20218;-51
2023/02/13 00:41:46;;;;;;;6.30;5.80;;;;;16.90;102564.00;;;;2086499;28;22233;-51
2023/02/13 00:42:46;;;;;;;6.27;5.77;;;;;16.90;102561.00;;;;2086012;28;20419;-56
2023/02/13 00:43:47;;;;;;;6.53;6.03;;;;;16.90;102556.00;;;;2087098;28;20209;-52
2023/02/13 00:44:47;;;;;;;6.30;5.80;;;;;16.90;102559.00;;;;2086749;28;20213;-51
2023/02/13 00:45:47;;;;;;;6.10;5.60;;;;;16.90;102553.00;;;;2078118;28;20210;-53
2023/02/13 00:46:48;;;;;;;6.03;5.53;;;;;16.90;102549.00;;;;2078340;28;20233;-52
2023/02/13 00:47:48;;;;;;;6.03;5.43;;;;;16.90;102557.00;;;;2086531;28;20213;-52
2023/02/13 00:48:48;;;;;;;6.30;5.77;;;;;16.90;102560.00;;;;2086132;28;20214;-51
2023/02/13 00:49:49;;;;;;;6.30;5.80;;;;;16.90;102561.00;;;;2086961;28;20239;-51
2023/02/13 00:50:51;;;;;;;6.17;5.67;;;;;16.90;102569.00;;;;2086494;28;20218;-51
2023/02/13 00:51:51;;;;;;;5.68;5.18;;;;;16.90;102556.00;;;;2086386;28;20214;-51
2023/02/13 00:52:51;;;;;;;6.87;6.13;;;;;16.90;102559.00;;;;2086884;28;20744;-51
2023/02/13 00:53:52;;;;;;;5.57;5.07;;;;;16.90;102559.00;;;;2087026;28;20619;-51
2023/02/13 00:54:52;;;;;;;6.20;5.70;;;;;16.90;102565.00;;;;2087104;28;20943;-51
2023/02/13 00:55:52;;;;;;;6.70;6.20;;;;;16.90;102562.00;;;;2086642;28;20879;-51
2023/02/13 00:56:53;;;;;;;6.00;5.47;;;;;16.90;102562.00;;;;2087019;28;20753;-51
2023/02/13 00:57:53;;;;;;;5.63;5.23;;;;;16.90;102559.00;;;;2086397;28;20214;-51
2023/02/13 00:58:53;;;;;;;5.60;5.20;;;;;16.90;102559.00;;;;2086474;28;20238;-53
2023/02/13 00:59:54;;;;;;;6.10;5.60;;;;;16.90;102556.00;;;;2087046;28;20235;-51
2023/02/13 01:00:54;;;;;;;5.20;4.80;;;;;16.90;102551.00;;;;2086705;28;20219;-52
2023/02/13 01:01:54;;;;;;;5.60;5.20;;;;;16.90;102555.00;;;;2087115;28;20351;-51
2023/02/13 01:02:55;;;;;;;6.47;5.90;;;;;16.90;102551.00;;;;2087172;28;20209;-51
2023/02/13 01:03:55;;;;;;;5.70;5.20;;;;;16.90;102554.00;;;;2087007;28;20217;-52
2023/02/13 01:04:55;;;;;;;5.60;5.10;;;;;16.90;102559.00;;;;2086871;28;20229;-51
2023/02/13 01:05:56;;;;;;;5.43;5.00;;;;;16.90;102557.00;;;;2086814;28;20271;-51
2023/02/13 01:06:57;;;;;;;6.27;5.77;;;;;16.90;102561.00;;;;2086456;28;20275;-51
2023/02/13 01:07:57;;;;;;;5.73;5.30;;;;;16.60;102579.00;;;;2086228;28;21138;-51
2023/02/13 01:08:57;;;;;;;5.90;5.40;;;;;16.90;102554.00;;;;2086823;28;20779;-51
2023/02/13 01:09:58;;;;;;;5.77;5.30;;;;;16.90;102560.00;;;;2087155;28;20740;-51
2023/02/13 01:10:58;;;;;;;5.20;4.80;;;;;16.90;102558.00;;;;2086803;28;20217;-50
2023/02/13 01:11:58;;;;;;;5.60;5.20;;;;;16.90;102558.00;;;;2086844;28;20214;-51
2023/02/13 01:12:59;;;;;;;5.70;5.20;;;;;16.90;102559.00;;;;2087020;28;20312;-51
2023/02/13 01:13:59;;;;;;;5.53;5.10;;;;;16.90;102553.00;;;;2086461;28;20267;-51
2023/02/13 01:14:59;;;;;;;5.13;4.73;;;;;16.90;102553.00;;;;2086658;28;20217;-50
2023/02/13 01:16:00;;;;;;;5.20;4.77;;;;;16.90;102563.00;;;;2086883;28;20209;-50
2023/02/13 01:17:00;;;;;;;6.07;5.57;;;;;16.90;102554.00;;;;2086968;28;20218;-51
2023/02/13 01:18:01;;;;;;;5.23;4.83;;;;;16.90;102552.00;;;;2085768;28;20750;-50
2023/02/13 01:19:01;;;;;;;5.30;4.90;;;;;16.90;102558.00;;;;2086136;28;20245;-50
2023/02/13 01:20:02;;;;;;;5.67;5.17;;;;;16.90;102561.00;;;;2077505;28;20224;-51
2023/02/13 01:21:06;;;;;;;5.80;5.30;;;;;16.90;102554.00;;;;2084660;28;20229;-50
2023/02/13 01:22:07;;;;;;;5.65;5.18;;;;;16.90;102554.00;;;;2086888;28;20240;-51
2023/02/13 01:23:07;;;;;;;5.40;5.00;;;;;16.90;102551.00;;;;2084992;28;20209;-51
2023/02/13 01:24:07;;;;;;;6.40;5.07;;;;;16.90;102557.00;;;;2086965;28;20205;-51
2023/02/13 01:25:08;;;;;;;5.50;5.00;;;;;16.90;102557.00;;;;2086695;28;20699;-51
2023/02/13 01:26:15;;;;;;;5.30;4.90;;;;;16.90;102553.00;;;;2086604;28;20736;-50
2023/02/13 01:27:15;;;;;;;5.20;4.78;;;;;16.90;102545.00;;;;2086367;28;20632;-51
2023/02/13 01:28:15;;;;;;;5.47;5.07;;;;;16.90;102555.00;;;;2085335;28;20229;-50
2023/02/13 01:29:15;;;;;;;5.03;4.63;;;;;16.80;102553.00;;;;2087148;28;20297;-50
2023/02/13 01:30:17;;;;;;;5.33;4.93;;;;;16.90;102554.00;;;;2086728;28;20244;-50
2023/02/13 01:31:17;;;;;;;5.35;4.85;;;;;16.90;102552.00;;;;2086002;28;20224;-51
2023/02/13 01:32:17;;;;;;;5.33;4.93;;;;;16.90;102547.00;;;;2086293;28;20216;-51
2023/02/13 01:33:18;;;;;;;5.13;4.73;;;;;16.90;102553.00;;;;2086968;28;20216;-51
2023/02/13 01:34:18;;;;;;;5.30;4.90;;;;;16.90;102553.00;;;;2086915;28;20236;-51
2023/02/13 01:35:18;;;;;;;5.07;4.67;;;;;16.90;102552.00;;;;2086636;28;20221;-51
2023/02/13 01:36:19;;;;;;;5.10;4.70;;;;;16.90;102555.00;;;;2086850;28;20213;-51
2023/02/13 01:37:19;;;;;;;5.90;5.40;;;;;16.90;102555.00;;;;2087053;28;20220;-51
2023/02/13 01:38:19;;;;;;;5.27;4.87;;;;;16.90;102563.00;;;;2085775;28;20217;-51
2023/02/13 01:39:20;;;;;;;5.33;4.93;;;;;16.90;102558.00;;;;2086470;28;20343;-51
2023/02/13 01:40:20;;;;;;;5.10;4.70;;;;;16.90;102553.00;;;;2086600;28;20267;-51
2023/02/13 01:41:21;;;;;;;4.87;4.47;;;;;16.80;102551.00;;;;2086743;28;20627;-50
2023/02/13 01:42:24;;;;;;;5.13;4.67;;;;;16.90;102556.00;;;;2085748;28;20216;-50
2023/02/13 01:43:41;;;;;;;5.50;5.00;;;;;16.90;102555.00;;;;2086207;28;20218;-51
2023/02/13 01:44:49;;;;;;;5.82;5.32;;;;;16.90;102552.00;;;;2086033;28;20220;-51
2023/02/13 01:45:52;;;;;;;5.15;4.75;;;;;16.80;102559.00;;;;2086313;28;20217;-51
2023/02/13 01:46:52;;;;;;;4.95;4.55;;;;;16.90;102536.00;;;;2086174;28;20222;-51
2023/02/13 01:47:58;;;;;;;5.37;4.87;;;;;16.90;102555.00;;;;2078237;28;20215;-51
2023/02/13 01:49:11;;;;;;;5.20;4.80;;;;;16.90;102555.00;;;;2087452;28;20707;-51
2023/02/13 01:50:35;;;;;;;4.70;4.30;;;;;16.90;102554.00;;;;2088533;28;20553;-51
2023/02/13 01:51:35;;;;;;;5.38;4.90;;;;;16.80;102549.00;;;;2086759;28;20595;-50
2023/02/13 01:52:36;;;;;;;4.87;4.47;;;;;16.80;102545.00;;;;2087127;28;20214;-51
2023/02/13 01:53:45;;;;;;;5.50;5.00;;;;;16.80;102523.00;;;;2086495;28;20222;-51
2023/02/13 01:54:45;;;;;;;4.70;4.30;;;;;16.80;102555.00;;;;2071691;28;20212;-50
2023/02/13 01:55:49;;;;;;;5.10;4.70;;;;;16.80;102549.00;;;;2070760;28;20783;-50
2023/02/13 01:56:51;;;;;;;5.40;4.93;;;;;16.80;102548.00;;;;2079593;28;20225;-50
2023/02/13 01:57:55;;;;;;;5.57;5.18;;;;;16.80;102545.00;;;;2078559;28;20615;-51
2023/02/13 01:58:59;;;;;;;4.93;4.53;;;;;16.80;102522.00;;;;2071073;28;20227;-51
2023/02/13 02:00:05;;;;;;;5.03;4.63;;;;;16.80;102543.00;;;;2071647;28;20719;-51
2023/02/13 02:01:06;;;;;;;4.80;4.40;;;;;16.90;102547.00;;;;2079615;28;20570;-50
2023/02/13 02:02:06;;;;;;;5.37;4.87;;;;;16.90;102548.00;;;;2086199;28;20206;-50
2023/02/13 02:03:23;;;;;;;4.33;4.00;;;;;16.80;102539.00;;;;2087018;28;20217;-51
2023/02/13 02:04:29;;;;;;;5.30;4.80;;;;;16.80;102549.00;;;;2081041;28;20666;-50
2023/02/13 02:05:30;;;;;;;4.78;4.38;;;;;16.90;102543.00;;;;2086480;28;20384;-52
2023/02/13 02:06:33;;;;;;;5.60;5.10;;;;;16.90;102540.00;;;;2087370;28;20238;-52
2023/02/13 02:07:33;;;;;;;4.78;4.30;;;;;16.90;102543.00;;;;2087037;28;20249;-51
2023/02/13 02:08:35;;;;;;;5.00;4.60;;;;;16.80;102543.00;;;;2077716;28;20669;-50
2023/02/13 02:09:38;;;;;;;4.40;4.10;;;;;16.80;102546.00;;;;2070874;28;20280;-49
2023/02/13 02:10:38;;;;;;;4.30;4.00;;;;;16.80;102542.00;;;;2079253;28;20218;-51
2023/02/13 02:11:51;;;;;;;4.47;4.07;;;;;16.80;102534.00;;;;2079420;28;20203;-51
2023/02/13 02:13:12;;;;;;;4.80;4.40;;;;;16.80;102545.00;;;;2080210;28;20297;-51
2023/02/13 02:14:13;;;;;;;4.80;4.40;;;;;16.80;102536.00;;;;2083018;28;20214;-51
2023/02/13 02:15:13;;;;;;;4.50;4.10;;;;;16.80;102537.00;;;;2071030;28;20654;-51
2023/02/13 02:16:13;;;;;;;4.83;4.43;;;;;16.80;102537.00;;;;2079097;28;20258;-51
2023/02/13 02:17:13;;;;;;;4.63;4.23;;;;;16.80;102537.00;;;;2087095;28;20209;-51
2023/02/13 02:18:16;;;;;;;4.53;4.13;;;;;16.80;102534.00;;;;2085687;28;20265;-50
2023/02/13 02:19:29;;;;;;;4.70;4.30;;;;;16.80;102539.00;;;;2086761;28;20286;-51
2023/02/13 02:20:45;;;;;;;4.88;4.40;;;;;16.80;102543.00;;;;2086586;28;20971;-51
2023/02/13 02:22:27;;;;;;;4.20;3.90;;;;;16.80;102536.00;;;;2087180;28;20212;-51
2023/02/13 02:24:01;;;;;;;4.68;4.28;;;;;16.80;102540.00;;;;2054145;28;20219;-51
2023/02/13 02:25:08;;;;;;;4.50;4.20;;;;;16.80;102536.00;;;;2087463;28;20286;-51
2023/02/13 02:26:23;;;;;;;4.78;4.38;;;;;16.90;102537.00;;;;2082074;28;20271;-50
2023/02/13 02:27:34;;;;;;;4.65;4.28;;;;;16.80;102536.00;;;;2081148;28;20631;-51
2023/02/13 02:28:58;;;;;;;4.10;3.80;;;;;16.90;102534.00;;;;2080443;28;20722;-51
2023/02/13 02:30:20;;;;;;;4.40;4.00;;;;;16.90;102535.00;;;;2087908;28;20645;-51
2023/02/13 02:31:36;;;;;;;4.53;4.13;;;;;16.90;102533.00;;;;2088176;28;20225;-51
2023/02/13 02:32:48;;;;;;;4.82;4.43;;;;;16.80;102534.00;;;;2087895;28;20220;-51
2023/02/13 02:33:58;;;;;;;4.57;4.18;;;;;16.80;102536.00;;;;2087607;28;20218;-50
2023/02/13 02:35:07;;;;;;;4.00;3.70;;;;;16.80;102548.00;;;;2088086;28;20229;-50
2023/02/13 02:36:11;;;;;;;4.70;4.30;;;;;16.80;102541.00;;;;2087835;28;20210;-51
2023/02/13 02:37:27;;;;;;;4.70;4.30;;;;;16.80;102530.00;;;;2087593;28;20217;-50
2023/02/13 02:38:49;;;;;;;4.82;4.43;;;;;16.80;102540.00;;;;2086588;28;20224;-50
2023/02/13 02:40:11;;;;;;;4.45;4.15;;;;;16.80;102540.00;;;;2087402;28;20258;-50
2023/02/13 02:41:11;;;;;;;4.30;3.90;;;;;16.80;102539.00;;;;2087099;28;20227;-51
2023/02/13 02:42:33;;;;;;;4.37;4.07;;;;;16.80;102514.00;;;;2088273;28;20633;-51
2023/02/13 02:44:01;;;;;;;3.80;3.45;;;;;16.80;102531.00;;;;2087580;28;20387;-51
2023/02/13 02:45:15;;;;;;;3.80;3.50;;;;;16.80;102533.00;;;;2076114;28;20255;-50
2023/02/13 02:46:19;;;;;;;4.57;4.18;;;;;16.80;102524.00;;;;2071996;28;20256;-50
2023/02/13 02:50:38;;;;;;;4.28;3.88;;;;;16.80;102537.00;;;;2076981;28;20211;-50
2023/02/13 02:51:56;;;;;;;3.72;3.42;;;;;16.80;102534.00;;;;2076257;28;20218;-50
2023/02/13 02:53:34;;;;;;;3.83;3.53;;;;;16.80;102529.00;;;;2070018;28;20582;-50
2023/02/13 02:56:11;;;;;;;3.70;3.40;;;;;16.80;102524.00;;;;2074151;28;20217;-50
2023/02/13 02:57:19;;;;;;;3.78;3.47;;;;;16.80;102546.00;;;;2065461;28;20218;-50
2023/02/13 03:06:47;;;;;;;3.83;3.53;;;;;16.80;102528.00;;;;2075151;28;20312;-50
2023/02/13 03:07:47;;;;;;;4.18;3.80;;;;;16.80;102528.00;;;;2079165;28;20678;-51
2023/02/13 03:13:21;;;;;;;3.90;3.60;;;;;16.80;102511.00;;;;2067585;28;20219;-50
2023/02/13 03:14:22;;;;;;;4.05;3.65;;;;;16.80;102535.00;;;;2066313;28;20241;-50
2023/02/13 03:15:23;;;;;;;3.70;3.40;;;;;16.80;102527.00;;;;2066609;28;20900;-50
2023/02/13 03:22:20;;;;;;;3.90;3.60;;;;;16.80;102535.00;;;;2075973;28;20236;-52
2023/02/13 03:23:56;;;;;;;3.00;2.80;;;;;16.80;102530.00;;;;2078979;28;20268;-50
2023/02/13 03:25:05;;;;;;;3.42;3.13;;;;;16.80;102533.00;;;;2079128;28;20650;-50
2023/02/13 03:26:20;;;;;;;3.78;3.47;;;;;16.80;102541.00;;;;2079294;28;20664;-50
2023/02/13 03:30:40;;;;;;;3.50;3.20;;;;;16.80;102540.00;;;;2077629;28;20218;-51
2023/02/13 03:31:52;;;;;;;3.50;3.20;;;;;16.80;102540.00;;;;2077991;28;20222;-50
2023/02/13 03:33:19;;;;;;;2.88;2.67;;;;;16.80;102540.00;;;;2077959;28;20587;-50
2023/02/13 03:34:20;;;;;;;3.40;3.10;;;;;16.80;102537.00;;;;2073319;28;20228;-51
2023/02/13 03:38:24;;;;;;;3.10;2.90;;;;;16.80;102538.00;;;;2066334;28;20273;-50
2023/02/13 03:39:40;;;;;;;3.40;3.10;;;;;16.80;102537.00;;;;2060815;28;20622;-51
2023/02/13 03:42:10;;;;;;;3.10;2.90;;;;;16.80;102539.00;;;;2077814;28;20209;-50
2023/02/13 03:43:12;;;;;;;2.88;2.67;;;;;16.80;102535.00;;;;2077995;28;20244;-51
2023/02/13 03:44:38;;;;;;;3.00;2.80;;;;;16.80;102539.00;;;;2072182;28;20311;-50
2023/02/13 03:45:52;;;;;;;3.33;3.05;;;;;16.80;102547.00;;;;2081463;28;20221;-51
2023/02/13 03:46:54;;;;;;;2.95;2.75;;;;;16.80;102546.00;;;;2078048;28;20217;-50
2023/02/13 03:47:56;;;;;;;3.63;3.33;;;;;16.80;102564.00;;;;2063794;28;20983;-50
2023/02/13 03:50:26;;;;;;;2.70;2.50;;;;;16.80;102526.00;;;;2060195;28;20776;-51
2023/02/13 03:51:42;;;;;;;2.70;2.50;;;;;16.80;102542.00;;;;2065568;28;20245;-51
2023/02/13 03:52:50;;;;;;;3.30;3.00;;;;;16.80;102545.00;;;;2080454;28;20919;-50
2023/02/13 03:53:54;;;;;;;3.03;2.72;;;;;16.80;102548.00;;;;2078345;28;20253;-51
2023/02/13 03:59:17;;;;;;;3.10;2.90;;;;;16.80;102552.00;;;;2074868;28;20948;-50
2023/02/13 04:00:18;;;;;;;3.13;2.83;;;;;16.80;102552.00;;;;2078601;28;20643;-54
2023/02/13 04:01:20;;;;;;;3.00;2.70;;;;;16.80;102547.00;;;;2080499;28;20217;-51
2023/02/13 04:02:23;;;;;;;3.47;3.17;;;;;16.80;102551.00;;;;2070426;28;20214;-51
2023/02/13 04:03:30;;;;;;;2.78;2.58;;;;;16.80;102553.00;;;;2070312;28;20593;-52
2023/02/13 04:04:42;;;;;;;2.60;2.40;;;;;16.80;102548.00;;;;2071034;28;20385;-51
2023/02/13 04:05:45;;;;;;;2.92;2.63;;;;;16.80;102568.00;;;;2080329;28;20279;-51
2023/02/13 04:06:58;;;;;;;3.33;3.03;;;;;16.80;102551.00;;;;2078534;28;20293;-51
2023/02/13 04:07:58;;;;;;;2.60;2.40;;;;;16.80;102553.00;;;;2079374;28;20636;-51
2023/02/13 04:08:59;;;;;;;2.77;2.50;;;;;16.80;102528.00;;;;2084636;28;20218;-51
2023/02/13 04:10:01;;;;;;;2.37;2.17;;;;;16.80;102557.00;;;;2086345;28;20335;-51
2023/02/13 04:11:17;;;;;;;2.70;2.50;;;;;16.80;102553.00;;;;2086091;28;20245;-51
2023/02/13 04:12:25;;;;;;;2.50;2.30;;;;;16.80;102535.00;;;;2086445;28;20212;-51
2023/02/13 04:13:37;;;;;;;2.50;2.30;;;;;16.80;102553.00;;;;2078498;28;20644;-51
2023/02/13 04:15:03;;;;;;;3.17;2.88;;;;;16.80;102550.00;;;;2071279;28;20254;-51
2023/02/13 04:16:12;;;;;;;3.00;2.80;;;;;16.80;102548.00;;;;2077124;28;20252;-51
2023/02/13 04:17:16;;;;;;;2.83;2.60;;;;;16.80;102524.00;;;;2079261;28;20298;-51
2023/02/13 04:18:25;;;;;;;3.08;2.80;;;;;16.80;102546.00;;;;2069660;28;20215;-51
2023/02/13 04:19:26;;;;;;;2.72;2.42;;;;;16.80;102540.00;;;;2063756;28;20219;-51
2023/02/13 04:20:27;;;;;;;2.60;2.40;;;;;16.80;102551.00;;;;2070651;28;20218;-51
2023/02/13 04:21:31;;;;;;;2.60;2.40;;;;;16.80;102540.00;;;;2078367;28;20309;-50
2023/02/13 04:22:31;;;;;;;2.83;2.63;;;;;16.80;102539.00;;;;2070581;28;20218;-51
2023/02/13 04:23:32;;;;;;;2.70;2.50;;;;;16.80;102538.00;;;;2070156;28;20301;-51
2023/02/13 04:24:32;;;;;;;2.60;2.40;;;;;16.80;102545.00;;;;2085779;28;20214;-51
2023/02/13 04:25:33;;;;;;;2.87;2.67;;;;;16.80;102531.00;;;;2087042;28;20225;-51
2023/02/13 04:26:36;;;;;;;2.45;2.25;;;;;16.80;102542.00;;;;2086393;28;20205;-51
2023/02/13 04:27:36;;;;;;;2.88;2.67;;;;;16.80;102540.00;;;;2070075;28;20764;-51
2023/02/13 04:28:36;;;;;;;2.40;2.20;;;;;16.80;102541.00;;;;2077492;28;20230;-51
2023/02/13 04:29:37;;;;;;;2.60;2.40;;;;;16.80;102456.00;;;;2086717;28;20217;-51
2023/02/13 04:30:37;;;;;;;2.57;2.37;;;;;16.80;102542.00;;;;2086004;28;20386;-51
2023/02/13 04:31:39;;;;;;;2.50;2.30;;;;;16.80;102547.00;;;;2086327;28;20291;-51
2023/02/13 04:32:39;;;;;;;2.70;2.50;;;;;16.80;102537.00;;;;2086872;28;20244;-51
2023/02/13 04:33:39;;;;;;;2.60;2.40;;;;;16.80;102541.00;;;;2086690;28;20201;-51
2023/02/13 04:34:40;;;;;;;2.70;2.40;;;;;16.80;102534.00;;;;2086750;28;20267;-51
2023/02/13 04:35:40;;;;;;;2.40;2.20;;;;;16.80;102538.00;;;;2087012;28;20205;-51
2023/02/13 04:36:40;;;;;;;2.87;2.67;;;;;16.80;102538.00;;;;2086955;28;20221;-51
2023/02/13 04:37:41;;;;;;;2.30;2.10;;;;;16.80;102545.00;;;;2087082;28;20208;-50
2023/02/13 04:38:41;;;;;;;2.20;2.00;;;;;16.80;102539.00;;;;2086209;28;20396;-51
2023/02/13 04:39:42;;;;;;;2.83;2.63;;;;;16.80;102547.00;;;;2086569;28;20213;-51
2023/02/13 04:40:42;;;;;;;2.50;2.30;;;;;16.80;102545.00;;;;2082727;28;20220;-51
2023/02/13 04:41:43;;;;;;;2.63;2.43;;;;;16.80;102543.00;;;;2094534;28;20216;-51
2023/02/13 04:42:43;;;;;;;2.40;2.20;;;;;16.80;102537.00;;;;2088482;28;20243;-51
2023/02/13 04:43:43;;;;;;;2.60;2.40;;;;;16.70;102542.00;;;;2086529;28;21855;-51
2023/02/13 04:44:44;;;;;;;3.00;2.70;;;;;16.80;102542.00;;;;2086387;28;20220;-50
2023/02/13 04:45:50;;;;;;;2.27;2.17;;;;;16.80;102537.00;;;;2086903;28;20324;-51
2023/02/13 04:46:50;;;;;;;2.58;2.38;;;;;16.80;102545.00;;;;2086955;28;20777;-51
2023/02/13 04:47:53;;;;;;;2.97;2.77;;;;;16.80;102526.00;;;;2086771;28;20266;-51
2023/02/13 04:48:53;;;;;;;2.50;2.30;;;;;16.80;102536.00;;;;2086276;28;20832;-51
2023/02/13 04:49:54;;;;;;;1.93;1.80;;;;;16.80;102528.00;;;;2086665;28;20239;-51
2023/02/13 04:50:54;;;;;;;2.57;2.37;;;;;16.80;102541.00;;;;2086683;28;20220;-51
2023/02/13 04:51:54;;;;;;;2.43;2.23;;;;;16.80;102531.00;;;;2086930;28;20236;-51
2023/02/13 04:52:55;;;;;;;2.00;1.90;;;;;16.80;102540.00;;;;2086961;28;20304;-51
2023/02/13 04:53:56;;;;;;;2.53;2.33;;;;;16.80;102554.00;;;;2086839;28;20209;-53
2023/02/13 04:54:56;;;;;;;2.47;2.27;;;;;16.80;102536.00;;;;2084051;28;20459;-54
2023/02/13 04:55:56;;;;;;;2.30;2.10;;;;;16.80;102539.00;;;;2094296;28;20212;-53
2023/02/13 04:56:57;;;;;;;2.20;2.00;;;;;16.80;102533.00;;;;2086196;28;20213;-52
2023/02/13 04:57:57;;;;;;;2.10;1.90;;;;;16.50;102532.00;;;;2086215;28;20217;-52
2023/02/13 04:58:57;;;;;;;2.50;2.17;;;;;16.80;102532.00;;;;2086149;28;20220;-53
2023/02/13 04:59:58;;;;;;;2.47;2.27;;;;;16.80;102534.00;;;;2086809;28;20239;-51
2023/02/13 05:00:58;;;;;;;2.13;1.97;;;;;16.80;102552.00;;;;2086750;28;20230;-52
2023/02/13 05:01:58;;;;;;;2.20;2.00;;;;;16.80;102528.00;;;;2086813;28;20755;-51
2023/02/13 05:03:09;;;;;;;2.10;1.90;;;;;16.80;102530.00;;;;2087073;28;21069;-50
2023/02/13 05:04:14;;;;;;;2.05;1.88;;;;;16.80;102529.00;;;;2086290;28;20221;-51
2023/02/13 05:05:15;;;;;;;2.05;1.90;;;;;16.80;102532.00;;;;2085796;28;20213;-51
2023/02/13 05:06:15;;;;;;;2.20;2.00;;;;;16.80;102528.00;;;;2086848;28;20209;-51
2023/02/13 05:07:15;;;;;;;2.67;2.47;;;;;16.80;102519.00;;;;2086842;28;20284;-51
2023/02/13 05:08:16;;;;;;;2.10;1.90;;;;;16.80;102522.00;;;;2085544;28;20747;-51
2023/02/13 05:09:16;;;;;;;2.20;2.00;;;;;16.70;102528.00;;;;2086831;28;20579;-50
2023/02/13 05:10:17;;;;;;;2.53;2.33;;;;;16.80;102531.00;;;;2087012;28;20206;-50
2023/02/13 05:11:17;;;;;;;2.70;2.50;;;;;16.80;102528.00;;;;2087203;28;20223;-50
2023/02/13 05:12:17;;;;;;;1.90;1.80;;;;;16.70;102530.00;;;;2086747;28;20205;-50
2023/02/13 05:13:20;;;;;;;2.30;2.10;;;;;16.80;102527.00;;;;2087084;28;20256;-50
2023/02/13 05:14:20;;;;;;;2.15;1.98;;;;;16.80;102534.00;;;;2086900;28;20222;-51
2023/02/13 05:15:22;;;;;;;2.17;1.97;;;;;16.80;102534.00;;;;2086966;28;20805;-50
2023/02/13 05:16:22;;;;;;;2.05;1.95;;;;;16.80;102521.00;;;;2087000;28;20673;-50
2023/02/13 05:17:23;;;;;;;2.60;2.40;;;;;16.80;102531.00;;;;2086574;28;20220;-51
2023/02/13 05:18:23;;;;;;;2.00;1.90;;;;;16.80;102527.00;;;;2085386;28;20225;-50
2023/02/13 05:19:23;;;;;;;2.60;2.40;;;;;16.70;102533.00;;;;2086560;28;20225;-51
2023/02/13 05:20:24;;;;;;;2.20;2.00;;;;;16.80;102527.00;;;;2086806;28;20228;-51
2023/02/13 05:24:03;;;;;;;2.38;2.17;;;;;16.80;102527.00;;;;2086849;28;20204;-51
2023/02/13 05:25:03;;;;;;;2.33;2.13;;;;;16.80;102531.00;;;;2086734;28;20784;-51
2023/02/13 05:26:04;;;;;;;1.80;1.70;;;;;16.80;102531.00;;;;2086705;28;20293;-51
2023/02/13 05:27:04;;;;;;;2.33;2.13;;;;;16.80;102528.00;;;;2086586;28;20302;-50
2023/02/13 05:29:17;;;;;;;2.30;2.10;;;;;16.80;102531.00;;;;2085979;28;20223;-50
2023/02/13 05:29:25;;;;;;;2.30;2.10;;;;;16.80;102527.00;;;;2086757;28;20694;-51
2023/02/13 05:30:25;;;;;;;2.50;2.30;;;;;16.70;102525.00;;;;2086727;28;20208;-50
2023/02/13 05:31:26;;;;;;;1.90;1.80;;;;;16.80;102521.00;;;;2086962;28;20588;-50
2023/02/13 05:32:26;;;;;;;2.17;1.97;;;;;16.80;102524.00;;;;2086814;28;20684;-51
2023/02/13 05:33:26;;;;;;;2.17;1.97;;;;;16.80;102520.00;;;;2087069;28;20681;-50
2023/02/13 05:34:27;;;;;;;2.53;2.33;;;;;16.70;102523.00;;;;2086501;28;20705;-50
2023/02/13 05:35:27;;;;;;;2.20;2.00;;;;;16.80;102522.00;;;;2086124;28;20612;-50
2023/02/13 05:36:27;;;;;;;2.00;1.80;;;;;16.70;102526.00;;;;2086675;28;20227;-50
2023/02/13 05:37:28;;;;;;;2.00;1.80;;;;;16.80;102518.00;;;;2085734;28;20312;-51
2023/02/13 05:38:28;;;;;;;2.13;1.93;;;;;16.80;102516.00;;;;2085916;28;20292;-50
2023/02/13 05:39:28;;;;;;;2.23;2.03;;;;;16.80;102521.00;;;;2085287;28;20217;-51
2023/02/13 05:40:29;;;;;;;2.57;2.37;;;;;16.80;102528.00;;;;2086846;28;20222;-50
2023/02/13 05:41:29;;;;;;;2.07;1.87;;;;;16.80;102522.00;;;;2086148;28;20240;-50
2023/02/13 05:42:29;;;;;;;2.07;1.97;;;;;16.80;102523.00;;;;2086050;28;20223;-50
2023/02/13 05:43:30;;;;;;;2.00;1.77;;;;;16.80;102517.00;;;;2086142;28;20756;-50
2023/02/13 05:44:30;;;;;;;2.30;2.10;;;;;16.70;102519.00;;;;2086358;28;20224;-51
2023/02/13 05:45:31;;;;;;;1.60;1.50;;;;;16.80;102514.00;;;;2086775;28;20228;-50
2023/02/13 05:46:31;;;;;;;2.13;2.00;;;;;16.80;102515.00;;;;2086883;28;20596;-51
2023/02/13 05:47:31;;;;;;;2.37;2.17;;;;;16.80;102517.00;;;;2086824;28;20573;-51
2023/02/13 05:48:32;;;;;;;2.00;1.90;;;;;16.80;102512.00;;;;2085991;28;20218;-50
2023/02/13 05:49:32;;;;;;;2.20;2.00;;;;;16.80;102514.00;;;;2086288;28;20299;-50
2023/02/13 05:50:32;;;;;;;2.30;2.00;;;;;16.80;102504.00;;;;2086095;28;20897;-50
2023/02/13 05:51:33;;;;;;;2.07;1.93;;;;;16.70;102520.00;;;;2086451;28;20553;-50
2023/02/13 05:52:33;;;;;;;2.30;1.90;;;;;16.80;102516.00;;;;2086083;28;20288;-50
2023/02/13 05:53:36;;;;;;;1.87;1.77;;;;;16.70;102518.00;;;;2086344;28;20213;-50
2023/02/13 05:54:37;;;;;;;2.10;1.90;;;;;16.70;102529.00;;;;2085838;28;20258;-50